• Join FlightAware (Why Join?)
  • Login
  • US Flag 
04:51AM EST


 

Airport Tracker/Info


-or-


 

Live Flight TrackerFlight Track Log ✈ IRO7343 ✈ 25-Apr-2013 ✈ KTVC - KGRR

Flight Track Log - Related Links

Times and Time Zones

All times are in EDT time to prevent confusion due to time zone crossing. See the IRO7343 flight status page for this flight to view local times or setup timezone preferences in your user account.

Time Position Orientation Groundspeed Altitude Reporting Facility
EDT Latitude Longitude Course Direction KTS MPH feet Rate Location/Type
07:57PM 44.7400 -85.6067 205° Southwest 77 89 1,500  Level Chicago Center
07:58PM 44.7197 -85.6203 205° Southwest 98 113 2,300 774 Climbing Chicago Center
07:59PM 44.6922 -85.6158 173° South 99 114 3,100 726 Climbing Chicago Center
08:00PM 44.6636 -85.6161 180° South 100 115 3,800 677 Climbing Chicago Center
08:01PM 44.6328 -85.6172 181° South 105 121 4,500 709 Climbing Chicago Center
08:03PM 44.5950 -85.6133 176° South 111 128 5,300 803 Climbing Minneapolis Center
08:04PM 44.5622 -85.6106 177° South 114 131 6,200 823 Climbing Minneapolis Center
08:05PM 44.5297 -85.6092 178° South 117 135 7,000 774 Climbing Minneapolis Center
08:06PM 44.4956 -85.6072 178° South 120 138 7,800 774 Climbing Minneapolis Center
08:07PM 44.4614 -85.6053 178° South 121 139 8,600 774 Climbing Minneapolis Center
08:08PM 44.4281 -85.6025 177° South 120 138 9,400 774 Climbing Minneapolis Center
08:09PM 44.3856 -85.6006 178° South 125 144 10,200 629 Climbing Minneapolis Center
08:10PM 44.3486 -85.6000 179° South 130 150 10,700 290 Climbing Minneapolis Center
08:11PM 44.3047 -85.5958 176° South 148 170 10,800 97 Climbing Minneapolis Center
08:12PM 44.2553 -85.5947 179° South 169 194 10,900 97 Climbing Minneapolis Center
08:13PM 44.2050 -85.5928 178° South 178 205 11,000  Climbing Minneapolis Center
08:14PM 44.1547 -85.5889 177° South 180 207 10,900 -44 Descending Minneapolis Center
08:15PM 44.0869 -85.5844 177° South 176 203 10,900 44 Level Minneapolis Center
08:16PM 44.0458 -85.5825 178° South 175 201 11,000 48 Climbing Minneapolis Center
08:17PM 43.9881 -85.5792 178° South 174 200 11,000  Level Minneapolis Center
08:18PM 43.9392 -85.5772 178° South 175 201 11,000  Level Minneapolis Center
08:19PM 43.8897 -85.5739 177° South 177 204 11,000  Level Minneapolis Center
08:20PM 43.8406 -85.5728 179° South 178 205 11,000 48 Level Minneapolis Center
08:21PM 43.7903 -85.5694 177° South 179 206 11,100 44 Climbing Minneapolis Center
08:23PM 43.7414 -85.5658 177° South 177 204 11,100 -44 Level Minneapolis Center
08:24PM 43.6706 -85.5622 178° South 180 207 11,000 -48 Descending Minneapolis Center
08:25PM 43.6203 -85.5611 179° South 181 208 11,000  Level Minneapolis Center
08:26PM 43.5714 -85.5575 177° South 178 205 11,000  Level Minneapolis Center
08:27PM 43.5214 -85.5558 179° South 179 206 11,000 -48 Level Minneapolis Center
08:28PM 43.4725 -85.5517 176° South 177 204 10,900 -432 Descending Minneapolis Center
08:29PM 43.4192 -85.5497 178° South 186 214 10,100 -706 Descending Minneapolis Center
08:30PM 43.3525 -85.5481 179° South 197 227 9,300 -735 Descending Minneapolis Center
08:30PM 43.3203 -85.5453 176° South 195 224 8,900 -837 Descending Chicago Center
08:31PM 43.2681 -85.5408 176° South 188 216 8,100 -720 Descending Chicago Center
08:32PM 43.2158 -85.5386 178° South 187 215 7,400 -672 Descending Chicago Center
08:34PM 43.1633 -85.5364 178° South 188 216 6,700 -677 Descending Chicago Center
08:35PM 43.1111 -85.5319 176° South 187 215 6,000 -774 Descending Chicago Center
08:36PM 43.0578 -85.5239 174° South 191 220 5,100 -871 Descending Chicago Center
08:37PM 43.0000 -85.4992 163° South 186 214 4,200 -726 Descending Chicago Center
08:38PM 42.9583 -85.4597 145° Southeast 183 211 3,600 -774 Descending Chicago Center
08:39PM 42.9142 -85.4269 151° Southeast 182 209 2,600 -677 Descending Chicago Center
08:40PM 42.8850 -85.4431 202° Southwest 150 173 2,200 -629 Descending Chicago Center
08:41PM 42.8836 -85.4806 267° West 115 132 1,300 -629 Descending Chicago Center
08:42PM 42.8794 -85.5281 263° West 111 128 900 -387 Descending Chicago Center